Time,TemperatureF,DewpointF,PressureIn,WindDirection,WindDirectionDegrees,WindSpeedMPH,WindSpeedGustMPH,Humidity,HourlyPrecipIn,Conditions,Clouds,dailyrainin,SoftwareType,DateUTC
2013-05-13 07:30:00,64.5,45.5,30.03,East,80,18.0,23.0,50,0.00,,---,0.00,VWS V14.01,2013-05-13 12:30:00,
2013-05-13 08:12:00,64.5,46.5,30.03,East,80,12.0,18.0,52,0.00,,---,0.00,VWS V14.01,2013-05-13 13:12:00,
2013-05-13 08:17:00,65.1,47.1,30.04,East,80,9.0,18.0,52,0.00,,---,0.00,VWS V14.01,2013-05-13 13:17:00,
2013-05-13 08:22:00,65.9,47.3,30.03,East,80,11.0,18.0,51,0.00,,---,0.00,VWS V14.01,2013-05-13 13:22:00,
2013-05-13 08:27:00,66.6,47.4,30.03,East,80,12.0,18.0,50,0.00,,---,0.00,VWS V14.01,2013-05-13 13:27:00,
2013-05-13 08:32:00,67.4,47.0,30.03,East,80,12.0,13.0,48,0.00,,---,0.00,VWS V14.01,2013-05-13 13:32:00,
2013-05-13 08:37:00,68.5,47.5,30.03,East,80,14.0,16.0,47,0.00,,---,0.00,VWS V14.01,2013-05-13 13:37:00,
2013-05-13 08:42:00,69.3,46.5,30.03,East,80,9.0,17.0,44,0.00,,---,0.00,VWS V14.01,2013-05-13 13:42:00,
2013-05-13 08:47:00,70.1,47.2,30.03,East,80,9.0,17.0,44,0.00,,---,0.00,VWS V14.01,2013-05-13 13:47:00,
2013-05-13 08:52:00,70.8,47.8,30.03,East,80,10.0,17.0,44,0.00,,---,0.00,VWS V14.01,2013-05-13 13:52:00,
2013-05-13 08:57:00,71.2,47.6,30.02,East,80,10.0,17.0,43,0.00,,---,0.00,VWS V14.01,2013-05-13 13:57:00,
2013-05-13 09:02:00,71.7,47.4,30.02,East,80,10.0,14.0,42,0.00,,---,0.00,VWS V14.01,2013-05-13 14:02:00,
2013-05-13 09:07:00,72.3,48.6,30.03,South,177,6.0,16.0,43,0.00,,---,0.00,VWS V14.01,2013-05-13 14:07:00,
2013-05-13 09:12:00,72.8,47.8,30.03,East,80,7.0,17.0,41,0.00,,---,0.00,VWS V14.01,2013-05-13 14:12:00,
2013-05-13 09:17:00,73.4,47.0,30.02,East,80,10.0,17.0,39,0.00,,---,0.00,VWS V14.01,2013-05-13 14:17:00,
2013-05-13 09:22:00,74.1,48.3,30.02,East,80,9.0,17.0,40,0.00,,---,0.00,VWS V14.01,2013-05-13 14:22:00,
2013-05-13 09:27:00,74.7,48.1,30.02,East,80,13.0,17.0,39,0.00,,---,0.00,VWS V14.01,2013-05-13 14:27:00,
2013-05-13 09:32:00,75.2,47.2,30.02,East,80,9.0,13.0,37,0.00,,---,0.00,VWS V14.01,2013-05-13 14:32:00,
2013-05-13 09:37:00,75.8,45.5,30.02,East,80,10.0,17.0,34,0.00,,---,0.00,VWS V14.01,2013-05-13 14:37:00,
2013-05-13 09:42:00,76.3,45.9,30.02,SSW,212,7.0,17.0,34,0.00,,---,0.00,VWS V14.01,2013-05-13 14:42:00,
2013-05-13 09:47:00,76.7,46.2,30.02,East,80,13.0,17.0,34,0.00,,---,0.00,VWS V14.01,2013-05-13 14:47:00,
2013-05-13 09:52:00,77.2,45.9,30.01,East,80,10.0,17.0,33,0.00,,---,0.00,VWS V14.01,2013-05-13 14:52:00,
2013-05-13 09:57:00,77.6,46.2,30.01,SSW,209,13.0,17.0,33,0.00,,---,0.00,VWS V14.01,2013-05-13 14:57:00,
2013-05-13 10:02:00,77.9,47.3,30.01,East,80,12.0,14.0,34,0.00,,---,0.00,VWS V14.01,2013-05-13 15:02:00,
2013-05-13 10:07:00,78.4,44.4,30.01,East,80,14.0,17.0,30,0.00,,---,0.00,VWS V14.01,2013-05-13 15:07:00,
2013-05-13 10:12:00,78.9,44.9,30.00,East,80,11.0,18.0,30,0.00,,---,0.00,VWS V14.01,2013-05-13 15:12:00,
2013-05-13 10:17:00,79.2,44.2,30.01,East,80,16.0,21.0,29,0.00,,---,0.00,VWS V14.01,2013-05-13 15:17:00,
2013-05-13 10:22:00,79.3,44.3,30.00,East,80,14.0,21.0,29,0.00,,---,0.00,VWS V14.01,2013-05-13 15:22:00,
2013-05-13 10:27:00,79.7,43.8,30.00,East,80,19.0,21.0,28,0.00,,---,0.00,VWS V14.01,2013-05-13 15:27:00,
2013-05-13 10:32:00,80.0,44.0,30.00,East,80,12.0,15.0,28,0.00,,---,0.00,VWS V14.01,2013-05-13 15:32:00,
2013-05-13 10:37:00,80.4,44.3,30.00,East,80,12.0,20.0,28,0.00,,---,0.00,VWS V14.01,2013-05-13 15:37:00,
2013-05-13 10:42:00,81.2,44.1,30.00,East,80,15.0,20.0,27,0.00,,---,0.00,VWS V14.01,2013-05-13 15:42:00,
2013-05-13 10:47:00,81.5,44.3,30.00,WSW,239,16.0,21.0,27,0.00,,---,0.00,VWS V14.01,2013-05-13 15:47:00,
2013-05-13 10:52:00,82.2,43.9,30.00,East,80,15.0,22.0,26,0.00,,---,0.00,VWS V14.01,2013-05-13 15:52:00,
2013-05-13 10:57:00,82.8,43.4,30.00,WSW,249,12.0,22.0,25,0.00,,---,0.00,VWS V14.01,2013-05-13 15:57:00,
2013-05-13 11:02:00,82.8,44.5,30.00,WSW,241,13.0,17.0,26,0.00,,---,0.00,VWS V14.01,2013-05-13 16:02:00,
2013-05-13 11:07:00,83.2,44.8,30.00,East,80,13.0,18.0,26,0.00,,---,0.00,VWS V14.01,2013-05-13 16:07:00,
2013-05-13 11:12:00,83.3,43.8,30.00,East,80,12.0,20.0,25,0.00,,---,0.00,VWS V14.01,2013-05-13 16:12:00,
2013-05-13 11:17:00,84.0,44.4,30.00,WSW,239,14.0,23.0,25,0.00,,---,0.00,VWS V14.01,2013-05-13 16:17:00,
2013-05-13 11:22:00,84.5,44.9,30.00,WSW,246,17.0,23.0,25,0.00,,---,0.00,VWS V14.01,2013-05-13 16:22:00,
2013-05-13 11:27:00,85.4,42.3,30.00,WSW,251,16.0,23.0,22,0.00,,---,0.00,VWS V14.01,2013-05-13 16:27:00,
2013-05-13 11:32:00,85.5,42.3,30.00,WSW,251,15.0,18.0,22,0.00,,---,0.00,VWS V14.01,2013-05-13 16:32:00,
2013-05-13 11:37:00,85.9,42.7,30.00,WSW,251,10.0,18.0,22,0.00,,---,0.00,VWS V14.01,2013-05-13 16:37:00,
2013-05-13 11:42:00,86.1,44.0,30.00,West,260,15.0,20.0,23,0.00,,---,0.00,VWS V14.01,2013-05-13 16:42:00,
2013-05-13 11:47:00,86.9,43.5,29.99,West,274,14.0,20.0,22,0.00,,---,0.00,VWS V14.01,2013-05-13 16:47:00,
2013-05-13 11:52:00,86.5,42.0,29.99,West,272,15.0,20.0,21,0.00,,---,0.00,VWS V14.01,2013-05-13 16:52:00,
2013-05-13 11:57:00,86.4,43.1,29.99,West,274,10.0,20.0,22,0.00,,---,0.00,VWS V14.01,2013-05-13 16:57:00,
2013-05-13 12:02:00,86.8,43.4,29.99,WSW,258,12.0,14.0,22,0.00,,---,0.00,VWS V14.01,2013-05-13 17:02:00,
2013-05-13 12:07:00,87.1,42.5,29.99,West,265,17.0,18.0,21,0.00,,---,0.00,VWS V14.01,2013-05-13 17:07:00,
2013-05-13 12:12:00,87.0,41.1,29.99,West,273,12.0,18.0,20,0.00,,---,0.00,VWS V14.01,2013-05-13 17:12:00,
2013-05-13 12:17:00,87.1,42.5,29.99,West,280,7.0,18.0,21,0.00,,---,0.00,VWS V14.01,2013-05-13 17:17:00,
2013-05-13 12:22:00,87.2,42.5,29.99,WSW,253,5.0,18.0,21,0.00,,---,0.00,VWS V14.01,2013-05-13 17:22:00,
2013-05-13 12:27:00,87.5,44.0,29.99,West,270,8.0,18.0,22,0.00,,---,0.00,VWS V14.01,2013-05-13 17:27:00,
2013-05-13 12:32:00,87.5,42.8,29.99,West,264,5.0,5.0,21,0.00,,---,0.00,VWS V14.01,2013-05-13 17:32:00,
2013-05-13 12:37:00,87.6,42.9,29.99,West,269,9.0,14.0,21,0.00,,---,0.00,VWS V14.01,2013-05-13 17:37:00,
2013-05-13 12:42:00,87.8,41.8,29.99,West,274,8.0,14.0,20,0.00,,---,0.00,VWS V14.01,2013-05-13 17:42:00,
2013-05-13 12:47:00,88.0,40.6,29.98,West,265,7.0,15.0,19,0.00,,---,0.00,VWS V14.01,2013-05-13 17:47:00,
2013-05-13 12:52:00,88.4,40.9,29.98,West,270,9.0,15.0,19,0.00,,---,0.00,VWS V14.01,2013-05-13 17:52:00,
2013-05-13 12:57:00,88.4,42.3,29.98,WSW,258,12.0,15.0,20,0.00,,---,0.00,VWS V14.01,2013-05-13 17:57:00,
2013-05-13 13:02:00,88.8,43.9,29.98,West,268,6.0,9.0,21,0.00,,---,0.00,VWS V14.01,2013-05-13 18:02:00,
2013-05-13 13:07:00,89.0,41.4,29.98,West,274,7.0,11.0,19,0.00,,---,0.00,VWS V14.01,2013-05-13 18:07:00,
2013-05-13 13:12:00,89.2,42.9,29.98,West,279,4.0,12.0,20,0.00,,---,0.00,VWS V14.01,2013-05-13 18:12:00,
2013-05-13 13:17:00,89.4,41.8,29.97,WNW,282,12.0,15.0,19,0.00,,---,0.00,VWS V14.01,2013-05-13 18:17:00,
2013-05-13 13:22:00,89.1,41.5,29.97,WNW,285,7.0,15.0,19,0.00,,---,0.00,VWS V14.01,2013-05-13 18:22:00,
2013-05-13 13:27:00,89.2,41.6,29.97,WNW,285,3.0,15.0,19,0.00,,---,0.00,VWS V14.01,2013-05-13 18:27:00,
2013-05-13 13:32:00,89.7,42.0,29.97,WNW,285,4.0,6.0,19,0.00,,---,0.00,VWS V14.01,2013-05-13 18:32:00,
2013-05-13 13:37:00,90.4,39.7,29.97,WNW,287,8.0,10.0,17,0.00,,---,0.00,VWS V14.01,2013-05-13 18:37:00,
2013-05-13 13:42:00,90.1,39.5,29.96,WNW,291,13.0,15.0,17,0.00,,---,0.00,VWS V14.01,2013-05-13 18:42:00,
2013-05-13 13:47:00,89.9,40.8,29.96,WNW,293,5.0,15.0,18,0.00,,---,0.00,VWS V14.01,2013-05-13 18:47:00,
2013-05-13 13:52:00,90.1,40.9,29.96,WNW,293,6.0,15.0,18,0.00,,---,0.00,VWS V14.01,2013-05-13 18:52:00,
2013-05-13 13:57:00,90.4,39.7,29.96,WNW,294,3.0,15.0,17,0.00,,---,0.00,VWS V14.01,2013-05-13 18:57:00,
2013-05-13 14:02:00,91.5,40.6,29.96,WNW,287,7.0,10.0,17,0.00,,---,0.00,VWS V14.01,2013-05-13 19:02:00,
2013-05-13 14:07:00,91.2,38.8,29.96,WNW,287,5.0,14.0,16,0.00,,---,0.00,VWS V14.01,2013-05-13 19:07:00,
2013-05-13 14:12:00,90.7,39.9,29.96,WNW,293,7.0,14.0,17,0.00,,---,0.00,VWS V14.01,2013-05-13 19:12:00,
2013-05-13 14:17:00,90.9,38.5,29.96,WNW,293,2.0,14.0,16,0.00,,---,0.00,VWS V14.01,2013-05-13 19:17:00,
2013-05-13 14:22:00,91.1,38.7,29.95,WNW,292,0.0,14.0,16,0.00,,---,0.00,VWS V14.01,2013-05-13 19:22:00,
2013-05-13 14:27:00,91.3,40.4,29.95,WNW,293,3.0,14.0,17,0.00,,---,0.00,VWS V14.01,2013-05-13 19:27:00,
2013-05-13 14:32:00,91.4,39.0,29.95,WNW,292,6.0,7.0,16,0.00,,---,0.00,VWS V14.01,2013-05-13 19:32:00,
2013-05-13 14:37:00,91.5,39.0,29.95,WNW,294,2.0,11.0,16,0.00,,---,0.00,VWS V14.01,2013-05-13 19:37:00,
2013-05-13 14:42:00,91.4,39.0,29.95,West,281,9.0,13.0,16,0.00,,---,0.00,VWS V14.01,2013-05-13 19:42:00,
2013-05-13 14:47:00,91.3,38.9,29.95,WSW,256,9.0,15.0,16,0.00,,---,0.00,VWS V14.01,2013-05-13 19:47:00,
2013-05-13 14:52:00,91.4,39.0,29.95,WSW,254,5.0,15.0,16,0.00,,---,0.00,VWS V14.01,2013-05-13 19:52:00,
2013-05-13 14:57:00,91.9,39.3,29.94,WSW,252,2.0,15.0,16,0.00,,---,0.00,VWS V14.01,2013-05-13 19:57:00,
2013-05-13 15:02:00,91.9,39.3,29.94,WSW,257,5.0,7.0,16,0.00,,---,0.00,VWS V14.01,2013-05-13 20:02:00,
2013-05-13 15:07:00,92.2,39.6,29.94,WSW,257,2.0,7.0,16,0.00,,---,0.00,VWS V14.01,2013-05-13 20:07:00,
2013-05-13 15:12:00,92.4,39.8,29.94,WNW,291,7.0,7.0,16,0.00,,---,0.00,VWS V14.01,2013-05-13 20:12:00,
2013-05-13 15:17:00,92.0,39.4,29.94,WNW,293,5.0,8.0,16,0.00,,---,0.00,VWS V14.01,2013-05-13 20:17:00,
2013-05-13 15:22:00,92.1,39.5,29.94,WNW,293,3.0,8.0,16,0.00,,---,0.00,VWS V14.01,2013-05-13 20:22:00,
2013-05-13 15:27:00,92.5,39.8,29.93,WNW,293,1.0,8.0,16,0.00,,---,0.00,VWS V14.01,2013-05-13 20:27:00,
2013-05-13 15:32:00,92.9,38.5,29.93,WNW,289,9.0,11.0,15,0.00,,---,0.00,VWS V14.01,2013-05-13 20:32:00,
2013-05-13 15:37:00,92.5,38.2,29.93,West,281,6.0,12.0,15,0.00,,---,0.00,VWS V14.01,2013-05-13 20:37:00,
2013-05-13 15:42:00,92.4,38.1,29.93,West,281,6.0,12.0,15,0.00,,---,0.00,VWS V14.01,2013-05-13 20:42:00,
2013-05-13 15:47:00,92.3,38.0,29.93,WNW,282,3.0,12.0,15,0.00,,---,0.00,VWS V14.01,2013-05-13 20:47:00,
2013-05-13 15:52:00,92.7,38.3,29.92,West,281,0.0,12.0,15,0.00,,---,0.00,VWS V14.01,2013-05-13 20:52:00,
2013-05-13 15:57:00,93.0,38.6,29.92,WNW,294,4.0,13.0,15,0.00,,---,0.00,VWS V14.01,2013-05-13 20:57:00,
2013-05-13 16:02:00,93.0,38.6,29.92,WNW,294,8.0,8.0,15,0.00,,---,0.00,VWS V14.01,2013-05-13 21:02:00,
2013-05-13 16:07:00,92.9,38.5,29.92,WNW,293,2.0,8.0,15,0.00,,---,0.00,VWS V14.01,2013-05-13 21:07:00,
2013-05-13 16:12:00,93.5,39.0,29.92,WNW,293,4.0,8.0,15,0.00,,---,0.00,VWS V14.01,2013-05-13 21:12:00,
2013-05-13 16:17:00,93.6,39.0,29.91,WNW,302,10.0,10.0,15,0.00,,---,0.00,VWS V14.01,2013-05-13 21:17:00,
2013-05-13 16:22:00,93.1,38.7,29.91,WNW,293,7.0,19.0,15,0.00,,---,0.00,VWS V14.01,2013-05-13 21:22:00,
2013-05-13 16:27:00,93.1,38.7,29.91,NW,305,6.0,19.0,15,0.00,,---,0.00,VWS V14.01,2013-05-13 21:27:00,
2013-05-13 16:32:00,93.1,38.7,29.91,WNW,303,2.0,6.0,15,0.00,,---,0.00,VWS V14.01,2013-05-13 21:32:00,
2013-05-13 16:37:00,93.3,38.8,29.91,NW,305,5.0,8.0,15,0.00,,---,0.00,VWS V14.01,2013-05-13 21:37:00,
2013-05-13 16:42:00,93.5,39.0,29.91,NW,305,2.0,8.0,15,0.00,,---,0.00,VWS V14.01,2013-05-13 21:42:00,
2013-05-13 16:47:00,93.8,39.2,29.90,WNW,302,11.0,12.0,15,0.00,,---,0.00,VWS V14.01,2013-05-13 21:47:00,
2013-05-13 16:52:00,93.4,38.9,29.90,WNW,297,9.0,13.0,15,0.00,,---,0.00,VWS V14.01,2013-05-13 21:52:00,
2013-05-13 16:57:00,93.3,38.8,29.90,WNW,297,2.0,13.0,15,0.00,,---,0.00,VWS V14.01,2013-05-13 21:57:00,
2013-05-13 17:02:00,93.8,39.2,29.90,WNW,297,0.0,1.0,15,0.00,,---,0.00,VWS V14.01,2013-05-13 22:02:00,
2013-05-13 17:07:00,94.6,38.1,29.90,WNW,297,0.0,3.0,14,0.00,,---,0.00,VWS V14.01,2013-05-13 22:07:00,
2013-05-13 17:12:00,95.3,38.6,29.90,WNW,297,3.0,5.0,14,0.00,,---,0.00,VWS V14.01,2013-05-13 22:12:00,
2013-05-13 17:17:00,95.1,38.5,29.89,WNW,297,1.0,5.0,14,0.00,,---,0.00,VWS V14.01,2013-05-13 22:17:00,
2013-05-13 17:22:00,94.9,38.3,29.89,WNW,296,8.0,8.0,14,0.00,,---,0.00,VWS V14.01,2013-05-13 22:22:00,
2013-05-13 17:27:00,94.2,37.8,29.89,WNW,292,3.0,10.0,14,0.00,,---,0.00,VWS V14.01,2013-05-13 22:27:00,
2013-05-13 17:32:00,94.2,39.5,29.89,WNW,291,3.0,6.0,15,0.00,,---,0.00,VWS V14.01,2013-05-13 22:32:00,
2013-05-13 17:37:00,94.4,37.9,29.89,WNW,291,1.0,6.0,14,0.00,,---,0.00,VWS V14.01,2013-05-13 22:37:00,
2013-05-13 17:42:00,95.2,38.5,29.89,WNW,291,3.0,6.0,14,0.00,,---,0.00,VWS V14.01,2013-05-13 22:42:00,
2013-05-13 17:47:00,94.5,38.0,29.89,NNW,341,6.0,10.0,14,0.00,,---,0.00,VWS V14.01,2013-05-13 22:47:00,
2013-05-13 17:52:00,93.7,39.1,29.89,NNW,341,7.0,10.0,15,0.00,,---,0.00,VWS V14.01,2013-05-13 22:52:00,
2013-05-13 17:57:00,93.4,38.9,29.89,North,356,11.0,11.0,15,0.00,,---,0.00,VWS V14.01,2013-05-13 22:57:00,
2013-05-13 18:02:00,93.5,39.0,29.89,North,357,3.0,4.0,15,0.00,,---,0.00,VWS V14.01,2013-05-13 23:02:00,
2013-05-13 18:07:00,93.6,39.0,29.88,North,357,2.0,5.0,15,0.00,,---,0.00,VWS V14.01,2013-05-13 23:07:00,
2013-05-13 18:12:00,94.0,37.6,29.88,North,357,2.0,6.0,14,0.00,,---,0.00,VWS V14.01,2013-05-13 23:12:00,
2013-05-13 18:17:00,94.2,39.5,29.88,North,357,1.0,6.0,15,0.00,,---,0.00,VWS V14.01,2013-05-13 23:17:00,
2013-05-13 18:22:00,94.3,37.8,29.88,North,358,6.0,7.0,14,0.00,,---,0.00,VWS V14.01,2013-05-13 23:22:00,
2013-05-13 18:27:00,93.9,39.3,29.88,North,358,0.0,7.0,15,0.00,,---,0.00,VWS V14.01,2013-05-13 23:27:00,
2013-05-13 18:32:00,94.3,39.6,29.88,North,359,3.0,5.0,15,0.00,,---,0.00,VWS V14.01,2013-05-13 23:32:00,
2013-05-13 18:37:00,93.9,41.0,29.88,North,2,8.0,8.0,16,0.00,,---,0.00,VWS V14.01,2013-05-13 23:37:00,
2013-05-13 18:42:00,93.4,38.9,29.88,NNE,33,10.0,12.0,15,0.00,,---,0.00,VWS V14.01,2013-05-13 23:42:00,
2013-05-13 18:47:00,93.1,38.7,29.88,NE,43,6.0,12.0,15,0.00,,---,0.00,VWS V14.01,2013-05-13 23:47:00,
2013-05-13 18:52:00,92.9,38.5,29.88,NE,39,4.0,12.0,15,0.00,,---,0.00,VWS V14.01,2013-05-13 23:52:00,
2013-05-13 18:57:00,92.9,38.5,29.88,NE,39,4.0,12.0,15,0.00,,---,0.00,VWS V14.01,2013-05-13 23:57:00,
2013-05-13 19:02:00,93.0,38.6,29.88,NE,51,5.0,7.0,15,0.00,,---,0.00,VWS V14.01,2013-05-14 00:02:00,
2013-05-13 19:07:00,92.9,38.5,29.88,ENE,65,7.0,8.0,15,0.00,,---,0.00,VWS V14.01,2013-05-14 00:07:00,
2013-05-13 19:12:00,92.6,39.9,29.88,ESE,110,8.0,10.0,16,0.00,,---,0.00,VWS V14.01,2013-05-14 00:12:00,
2013-05-13 19:17:00,92.5,39.8,29.87,East,99,6.0,10.0,16,0.00,,---,0.00,VWS V14.01,2013-05-14 00:17:00,
2013-05-13 19:22:00,92.3,39.7,29.87,East,101,9.0,10.0,16,0.00,,---,0.00,VWS V14.01,2013-05-14 00:22:00,
2013-05-13 19:27:00,92.2,39.6,29.87,East,97,7.0,10.0,16,0.00,,---,0.00,VWS V14.01,2013-05-14 00:27:00,
2013-05-13 19:32:00,92.1,41.1,29.87,East,97,7.0,8.0,17,0.00,,---,0.00,VWS V14.01,2013-05-14 00:32:00,
2013-05-13 19:37:00,91.9,39.3,29.87,East,92,9.0,10.0,16,0.00,,---,0.00,VWS V14.01,2013-05-14 00:37:00,
2013-05-13 19:42:00,91.8,39.3,29.87,East,91,9.0,10.0,16,0.00,,---,0.00,VWS V14.01,2013-05-14 00:42:00,
2013-05-13 19:47:00,91.8,37.6,29.87,East,85,10.0,10.0,15,0.00,,---,0.00,VWS V14.01,2013-05-14 00:47:00,
2013-05-13 19:52:00,91.8,37.6,29.86,East,91,9.0,10.0,15,0.00,,---,0.00,VWS V14.01,2013-05-14 00:52:00,
2013-05-13 19:57:00,91.7,37.5,29.87,East,91,10.0,11.0,15,0.00,,---,0.00,VWS V14.01,2013-05-14 00:57:00,